sensor_id;sensor_type;location;lat;lon;timestamp;P1;durP1;ratioP1;P2;durP2;ratioP2
59486;SDS011;45298;54.918;73.504;2023-05-10T00:01:57;77.00;;;38.28;;
59486;SDS011;45298;54.918;73.504;2023-05-10T00:04:26;73.78;;;38.42;;
59486;SDS011;45298;54.918;73.504;2023-05-10T00:06:55;76.78;;;37.60;;
59486;SDS011;45298;54.918;73.504;2023-05-10T00:09:24;80.13;;;40.65;;
59486;SDS011;45298;54.918;73.504;2023-05-10T00:11:53;87.00;;;44.92;;
59486;SDS011;45298;54.918;73.504;2023-05-10T00:14:21;116.57;;;51.55;;
59486;SDS011;45298;54.918;73.504;2023-05-10T00:16:50;101.40;;;50.08;;
59486;SDS011;45298;54.918;73.504;2023-05-10T00:19:19;89.22;;;45.72;;
59486;SDS011;45298;54.918;73.504;2023-05-10T00:21:48;100.50;;;46.40;;
59486;SDS011;45298;54.918;73.504;2023-05-10T00:24:17;85.30;;;43.80;;
59486;SDS011;45298;54.918;73.504;2023-05-10T00:26:46;89.03;;;43.42;;
59486;SDS011;45298;54.918;73.504;2023-05-10T00:29:15;101.05;;;43.38;;
59486;SDS011;45298;54.918;73.504;2023-05-10T00:31:44;102.35;;;45.65;;
59486;SDS011;45298;54.918;73.504;2023-05-10T00:34:13;97.22;;;42.22;;
59486;SDS011;45298;54.918;73.504;2023-05-10T00:36:41;84.53;;;40.22;;
59486;SDS011;45298;54.918;73.504;2023-05-10T00:39:10;95.20;;;47.50;;
59486;SDS011;45298;54.918;73.504;2023-05-10T00:41:40;98.93;;;43.63;;
59486;SDS011;45298;54.918;73.504;2023-05-10T00:44:09;95.60;;;46.03;;
59486;SDS011;45298;54.918;73.504;2023-05-10T00:46:38;84.50;;;41.53;;
59486;SDS011;45298;54.918;73.504;2023-05-10T00:49:07;76.00;;;37.90;;
59486;SDS011;45298;54.918;73.504;2023-05-10T00:51:35;96.45;;;42.90;;
59486;SDS011;45298;54.918;73.504;2023-05-10T00:54:05;85.20;;;38.53;;
59486;SDS011;45298;54.918;73.504;2023-05-10T00:56:34;70.03;;;35.97;;
59486;SDS011;45298;54.918;73.504;2023-05-10T00:59:04;61.55;;;34.33;;
59486;SDS011;45298;54.918;73.504;2023-05-10T01:01:33;68.22;;;35.42;;
59486;SDS011;45298;54.918;73.504;2023-05-10T01:04:03;66.35;;;34.13;;
59486;SDS011;45298;54.918;73.504;2023-05-10T01:06:32;52.92;;;28.73;;
59486;SDS011;45298;54.918;73.504;2023-05-10T01:09:01;55.35;;;29.10;;
59486;SDS011;45298;54.918;73.504;2023-05-10T01:11:30;49.92;;;27.77;;
59486;SDS011;45298;54.918;73.504;2023-05-10T01:13:58;47.35;;;27.48;;
59486;SDS011;45298;54.918;73.504;2023-05-10T01:16:27;42.80;;;24.48;;
59486;SDS011;45298;54.918;73.504;2023-05-10T01:19:00;39.85;;;24.55;;
59486;SDS011;45298;54.918;73.504;2023-05-10T01:21:43;44.22;;;24.85;;
59486;SDS011;45298;54.918;73.504;2023-05-10T01:27:36;35.45;;;21.65;;
59486;SDS011;45298;54.918;73.504;2023-05-10T01:33:35;29.92;;;17.98;;
59486;SDS011;45298;54.918;73.504;2023-05-10T01:38:47;35.83;;;20.92;;
59486;SDS011;45298;54.918;73.504;2023-05-10T01:41:24;35.25;;;18.52;;
59486;SDS011;45298;54.918;73.504;2023-05-10T01:44:18;30.73;;;17.40;;
59486;SDS011;45298;54.918;73.504;2023-05-10T01:47:40;30.90;;;17.85;;
59486;SDS011;45298;54.918;73.504;2023-05-10T01:50:00;28.33;;;17.45;;
59486;SDS011;45298;54.918;73.504;2023-05-10T01:52:33;36.60;;;21.23;;
59486;SDS011;45298;54.918;73.504;2023-05-10T01:55:06;36.05;;;21.77;;
59486;SDS011;45298;54.918;73.504;2023-05-10T01:57:39;35.78;;;21.08;;
59486;SDS011;45298;54.918;73.504;2023-05-10T02:00:10;35.65;;;20.13;;
59486;SDS011;45298;54.918;73.504;2023-05-10T02:02:40;35.22;;;20.15;;
59486;SDS011;45298;54.918;73.504;2023-05-10T02:05:14;34.05;;;19.35;;
59486;SDS011;45298;54.918;73.504;2023-05-10T02:07:44;37.22;;;20.70;;
59486;SDS011;45298;54.918;73.504;2023-05-10T02:10:13;33.03;;;19.70;;
59486;SDS011;45298;54.918;73.504;2023-05-10T02:12:47;34.88;;;20.60;;
59486;SDS011;45298;54.918;73.504;2023-05-10T02:15:18;35.13;;;19.23;;
59486;SDS011;45298;54.918;73.504;2023-05-10T02:17:53;34.30;;;20.73;;
59486;SDS011;45298;54.918;73.504;2023-05-10T02:20:23;38.95;;;20.67;;
59486;SDS011;45298;54.918;73.504;2023-05-10T02:22:55;31.88;;;19.38;;
59486;SDS011;45298;54.918;73.504;2023-05-10T02:25:25;32.92;;;18.83;;
59486;SDS011;45298;54.918;73.504;2023-05-10T02:27:55;37.97;;;19.67;;
59486;SDS011;45298;54.918;73.504;2023-05-10T02:30:26;32.83;;;20.35;;
59486;SDS011;45298;54.918;73.504;2023-05-10T02:32:56;35.63;;;21.95;;
59486;SDS011;45298;54.918;73.504;2023-05-10T02:35:26;40.33;;;19.83;;
59486;SDS011;45298;54.918;73.504;2023-05-10T02:37:56;32.97;;;19.60;;
59486;SDS011;45298;54.918;73.504;2023-05-10T02:40:28;33.65;;;19.98;;
59486;SDS011;45298;54.918;73.504;2023-05-10T02:42:57;35.70;;;19.35;;
59486;SDS011;45298;54.918;73.504;2023-05-10T02:45:31;35.20;;;19.90;;
59486;SDS011;45298;54.918;73.504;2023-05-10T02:48:02;32.42;;;19.75;;
59486;SDS011;45298;54.918;73.504;2023-05-10T02:50:32;36.30;;;22.67;;
59486;SDS011;45298;54.918;73.504;2023-05-10T02:53:03;31.38;;;18.95;;
59486;SDS011;45298;54.918;73.504;2023-05-10T02:55:37;33.63;;;19.98;;
59486;SDS011;45298;54.918;73.504;2023-05-10T02:58:08;28.35;;;18.45;;
59486;SDS011;45298;54.918;73.504;2023-05-10T03:00:37;33.40;;;19.15;;
59486;SDS011;45298;54.918;73.504;2023-05-10T03:03:07;32.00;;;19.15;;
59486;SDS011;45298;54.918;73.504;2023-05-10T03:05:36;44.17;;;19.90;;
59486;SDS011;45298;54.918;73.504;2023-05-10T03:08:05;39.10;;;20.77;;
59486;SDS011;45298;54.918;73.504;2023-05-10T03:10:47;28.75;;;18.50;;
59486;SDS011;45298;54.918;73.504;2023-05-10T03:13:39;32.05;;;18.95;;
59486;SDS011;45298;54.918;73.504;2023-05-10T03:16:31;28.13;;;17.55;;
59486;SDS011;45298;54.918;73.504;2023-05-10T03:19:16;29.02;;;18.40;;
59486;SDS011;45298;54.918;73.504;2023-05-10T03:21:54;28.60;;;17.77;;
59486;SDS011;45298;54.918;73.504;2023-05-10T03:24:31;31.85;;;17.98;;
59486;SDS011;45298;54.918;73.504;2023-05-10T03:27:02;35.20;;;19.20;;
59486;SDS011;45298;54.918;73.504;2023-05-10T03:29:33;31.88;;;18.67;;
59486;SDS011;45298;54.918;73.504;2023-05-10T03:32:03;28.35;;;18.70;;
59486;SDS011;45298;54.918;73.504;2023-05-10T03:34:32;29.35;;;19.00;;
59486;SDS011;45298;54.918;73.504;2023-05-10T03:37:02;31.33;;;19.05;;
59486;SDS011;45298;54.918;73.504;2023-05-10T03:39:31;33.85;;;19.00;;
59486;SDS011;45298;54.918;73.504;2023-05-10T03:42:01;30.40;;;18.33;;
59486;SDS011;45298;54.918;73.504;2023-05-10T03:44:30;29.75;;;18.77;;
59486;SDS011;45298;54.918;73.504;2023-05-10T03:47:01;27.35;;;17.95;;
59486;SDS011;45298;54.918;73.504;2023-05-10T03:49:31;29.00;;;19.20;;
59486;SDS011;45298;54.918;73.504;2023-05-10T03:52:00;26.23;;;15.45;;
59486;SDS011;45298;54.918;73.504;2023-05-10T03:54:31;26.17;;;17.05;;
59486;SDS011;45298;54.918;73.504;2023-05-10T03:57:00;26.48;;;17.35;;
59486;SDS011;45298;54.918;73.504;2023-05-10T03:59:31;27.85;;;17.45;;
59486;SDS011;45298;54.918;73.504;2023-05-10T04:02:00;27.25;;;17.95;;
59486;SDS011;45298;54.918;73.504;2023-05-10T04:04:29;28.98;;;17.80;;
59486;SDS011;45298;54.918;73.504;2023-05-10T04:06:58;33.35;;;18.00;;
59486;SDS011;45298;54.918;73.504;2023-05-10T04:09:27;26.75;;;16.48;;
59486;SDS011;45298;54.918;73.504;2023-05-10T04:11:59;23.08;;;16.05;;
59486;SDS011;45298;54.918;73.504;2023-05-10T04:14:30;22.15;;;15.05;;
59486;SDS011;45298;54.918;73.504;2023-05-10T04:16:58;27.52;;;15.73;;
59486;SDS011;45298;54.918;73.504;2023-05-10T04:19:29;24.83;;;14.80;;
59486;SDS011;45298;54.918;73.504;2023-05-10T04:21:58;25.70;;;15.90;;
59486;SDS011;45298;54.918;73.504;2023-05-10T04:24:27;24.30;;;15.15;;
59486;SDS011;45298;54.918;73.504;2023-05-10T04:26:56;27.77;;;15.10;;
59486;SDS011;45298;54.918;73.504;2023-05-10T04:29:27;25.77;;;14.85;;
59486;SDS011;45298;54.918;73.504;2023-05-10T04:31:56;21.70;;;15.35;;
59486;SDS011;45298;54.918;73.504;2023-05-10T04:34:25;29.65;;;16.58;;
59486;SDS011;45298;54.918;73.504;2023-05-10T04:36:54;24.73;;;15.00;;
59486;SDS011;45298;54.918;73.504;2023-05-10T04:39:23;23.33;;;13.38;;
59486;SDS011;45298;54.918;73.504;2023-05-10T04:41:52;23.90;;;14.18;;
59486;SDS011;45298;54.918;73.504;2023-05-10T04:44:21;23.13;;;14.07;;
59486;SDS011;45298;54.918;73.504;2023-05-10T04:46:50;21.83;;;13.93;;
59486;SDS011;45298;54.918;73.504;2023-05-10T04:49:19;21.83;;;14.50;;
59486;SDS011;45298;54.918;73.504;2023-05-10T04:51:51;21.77;;;13.60;;
59486;SDS011;45298;54.918;73.504;2023-05-10T04:54:19;21.65;;;14.10;;
59486;SDS011;45298;54.918;73.504;2023-05-10T04:56:48;22.60;;;14.00;;
59486;SDS011;45298;54.918;73.504;2023-05-10T04:59:17;23.38;;;14.60;;
59486;SDS011;45298;54.918;73.504;2023-05-10T05:01:46;23.65;;;15.10;;
59486;SDS011;45298;54.918;73.504;2023-05-10T05:04:15;26.88;;;14.00;;
59486;SDS011;45298;54.918;73.504;2023-05-10T05:06:44;22.02;;;13.70;;
59486;SDS011;45298;54.918;73.504;2023-05-10T06:18:18;22.13;;;13.18;;
59486;SDS011;45298;54.918;73.504;2023-05-10T06:20:47;17.40;;;12.80;;
59486;SDS011;45298;54.918;73.504;2023-05-10T06:23:18;20.50;;;13.32;;
59486;SDS011;45298;54.918;73.504;2023-05-10T06:25:47;21.02;;;13.20;;
59486;SDS011;45298;54.918;73.504;2023-05-10T06:28:17;20.45;;;13.52;;
59486;SDS011;45298;54.918;73.504;2023-05-10T06:30:46;20.83;;;13.07;;
59486;SDS011;45298;54.918;73.504;2023-05-10T06:33:15;21.50;;;12.32;;
59486;SDS011;45298;54.918;73.504;2023-05-10T06:35:44;20.02;;;12.25;;
59486;SDS011;45298;54.918;73.504;2023-05-10T06:38:13;19.27;;;12.27;;
59486;SDS011;45298;54.918;73.504;2023-05-10T06:40:42;21.38;;;12.27;;
59486;SDS011;45298;54.918;73.504;2023-05-10T06:43:11;19.00;;;12.35;;
59486;SDS011;45298;54.918;73.504;2023-05-10T06:45:40;24.67;;;12.98;;
59486;SDS011;45298;54.918;73.504;2023-05-10T06:48:11;17.05;;;11.68;;
59486;SDS011;45298;54.918;73.504;2023-05-10T06:50:40;18.55;;;11.82;;
59486;SDS011;45298;54.918;73.504;2023-05-10T06:53:09;19.27;;;11.70;;
59486;SDS011;45298;54.918;73.504;2023-05-10T06:55:38;19.58;;;11.48;;
59486;SDS011;45298;54.918;73.504;2023-05-10T06:58:09;18.15;;;11.48;;
59486;SDS011;45298;54.918;73.504;2023-05-10T07:00:38;26.00;;;15.65;;
59486;SDS011;45298;54.918;73.504;2023-05-10T07:03:09;19.52;;;12.20;;
59486;SDS011;45298;54.918;73.504;2023-05-10T07:05:38;22.77;;;12.43;;
59486;SDS011;45298;54.918;73.504;2023-05-10T07:08:07;18.58;;;12.63;;
59486;SDS011;45298;54.918;73.504;2023-05-10T07:10:36;19.67;;;10.80;;
59486;SDS011;45298;54.918;73.504;2023-05-10T07:13:05;17.60;;;11.05;;
59486;SDS011;45298;54.918;73.504;2023-05-10T07:15:34;17.83;;;11.15;;
59486;SDS011;45298;54.918;73.504;2023-05-10T07:18:03;27.05;;;11.73;;
59486;SDS011;45298;54.918;73.504;2023-05-10T07:20:34;15.45;;;11.00;;
59486;SDS011;45298;54.918;73.504;2023-05-10T07:23:03;15.48;;;11.15;;
59486;SDS011;45298;54.918;73.504;2023-05-10T07:25:32;22.75;;;10.40;;
59486;SDS011;45298;54.918;73.504;2023-05-10T07:28:01;20.52;;;11.38;;
59486;SDS011;45298;54.918;73.504;2023-05-10T07:30:30;18.55;;;10.23;;
59486;SDS011;45298;54.918;73.504;2023-05-10T07:32:59;167.43;;;140.73;;
59486;SDS011;45298;54.918;73.504;2023-05-10T07:35:28;20.92;;;12.75;;
59486;SDS011;45298;54.918;73.504;2023-05-10T07:37:57;16.80;;;10.48;;
59486;SDS011;45298;54.918;73.504;2023-05-10T07:40:25;17.30;;;11.13;;
59486;SDS011;45298;54.918;73.504;2023-05-10T07:42:55;15.10;;;10.73;;
59486;SDS011;45298;54.918;73.504;2023-05-10T07:45:23;17.83;;;12.15;;
59486;SDS011;45298;54.918;73.504;2023-05-10T07:47:52;16.73;;;10.10;;
59486;SDS011;45298;54.918;73.504;2023-05-10T07:50:21;15.43;;;9.85;;
59486;SDS011;45298;54.918;73.504;2023-05-10T07:52:50;14.88;;;10.02;;
59486;SDS011;45298;54.918;73.504;2023-05-10T07:55:19;16.20;;;10.82;;
59486;SDS011;45298;54.918;73.504;2023-05-10T07:57:51;20.27;;;12.88;;
59486;SDS011;45298;54.918;73.504;2023-05-10T08:00:20;19.77;;;10.65;;
59486;SDS011;45298;54.918;73.504;2023-05-10T08:02:49;16.52;;;9.52;;
59486;SDS011;45298;54.918;73.504;2023-05-10T08:05:18;18.73;;;11.70;;
59486;SDS011;45298;54.918;73.504;2023-05-10T08:07:46;18.00;;;9.77;;
59486;SDS011;45298;54.918;73.504;2023-05-10T08:10:15;15.13;;;9.98;;
59486;SDS011;45298;54.918;73.504;2023-05-10T08:12:44;17.60;;;9.52;;
59486;SDS011;45298;54.918;73.504;2023-05-10T08:15:13;12.95;;;8.95;;
59486;SDS011;45298;54.918;73.504;2023-05-10T08:17:43;23.65;;;8.95;;
59486;SDS011;45298;54.918;73.504;2023-05-10T08:20:11;18.73;;;8.50;;
59486;SDS011;45298;54.918;73.504;2023-05-10T08:22:44;17.10;;;9.80;;
59486;SDS011;45298;54.918;73.504;2023-05-10T08:25:17;20.50;;;11.50;;
59486;SDS011;45298;54.918;73.504;2023-05-10T08:27:46;24.95;;;11.18;;
59486;SDS011;45298;54.918;73.504;2023-05-10T08:30:15;20.73;;;9.50;;
59486;SDS011;45298;54.918;73.504;2023-05-10T08:32:44;13.32;;;9.00;;
59486;SDS011;45298;54.918;73.504;2023-05-10T08:35:16;21.63;;;12.57;;
59486;SDS011;45298;54.918;73.504;2023-05-10T08:37:45;18.23;;;10.38;;
59486;SDS011;45298;54.918;73.504;2023-05-10T08:40:13;15.52;;;9.07;;
59486;SDS011;45298;54.918;73.504;2023-05-10T08:42:45;14.63;;;9.18;;
59486;SDS011;45298;54.918;73.504;2023-05-10T08:45:22;21.70;;;9.07;;
59486;SDS011;45298;54.918;73.504;2023-05-10T08:47:52;18.08;;;9.35;;
59486;SDS011;45298;54.918;73.504;2023-05-10T08:50:22;14.23;;;8.90;;
59486;SDS011;45298;54.918;73.504;2023-05-10T08:52:52;25.10;;;9.32;;
59486;SDS011;45298;54.918;73.504;2023-05-10T08:55:25;14.05;;;10.75;;
59486;SDS011;45298;54.918;73.504;2023-05-10T08:57:54;17.00;;;8.60;;
59486;SDS011;45298;54.918;73.504;2023-05-10T09:00:23;18.88;;;9.23;;
59486;SDS011;45298;54.918;73.504;2023-05-10T09:02:52;14.25;;;8.93;;
59486;SDS011;45298;54.918;73.504;2023-05-10T09:05:22;17.52;;;8.70;;
59486;SDS011;45298;54.918;73.504;2023-05-10T09:07:51;16.52;;;11.93;;
59486;SDS011;45298;54.918;73.504;2023-05-10T09:10:20;22.65;;;9.52;;
59486;SDS011;45298;54.918;73.504;2023-05-10T09:12:50;19.58;;;12.00;;
59486;SDS011;45298;54.918;73.504;2023-05-10T09:15:19;31.60;;;23.77;;
59486;SDS011;45298;54.918;73.504;2023-05-10T09:17:48;16.33;;;8.73;;
59486;SDS011;45298;54.918;73.504;2023-05-10T09:20:18;14.45;;;9.70;;
59486;SDS011;45298;54.918;73.504;2023-05-10T09:22:47;13.45;;;7.93;;
59486;SDS011;45298;54.918;73.504;2023-05-10T09:25:16;19.38;;;10.07;;
59486;SDS011;45298;54.918;73.504;2023-05-10T09:27:46;21.02;;;8.38;;
59486;SDS011;45298;54.918;73.504;2023-05-10T09:30:16;16.67;;;9.23;;
59486;SDS011;45298;54.918;73.504;2023-05-10T09:32:56;17.00;;;8.60;;
59486;SDS011;45298;54.918;73.504;2023-05-10T09:35:30;17.00;;;9.32;;
59486;SDS011;45298;54.918;73.504;2023-05-10T09:38:01;16.88;;;9.15;;
59486;SDS011;45298;54.918;73.504;2023-05-10T09:40:31;12.43;;;8.48;;
59486;SDS011;45298;54.918;73.504;2023-05-10T09:43:01;26.63;;;16.95;;
59486;SDS011;45298;54.918;73.504;2023-05-10T09:45:34;14.35;;;8.05;;
59486;SDS011;45298;54.918;73.504;2023-05-10T09:48:05;17.17;;;8.30;;
59486;SDS011;45298;54.918;73.504;2023-05-10T09:50:34;16.00;;;8.35;;
59486;SDS011;45298;54.918;73.504;2023-05-10T09:53:03;15.77;;;9.25;;
59486;SDS011;45298;54.918;73.504;2023-05-10T09:58:04;19.17;;;8.43;;
59486;SDS011;45298;54.918;73.504;2023-05-10T10:00:45;12.63;;;7.35;;
59486;SDS011;45298;54.918;73.504;2023-05-10T10:03:19;11.63;;;7.50;;
59486;SDS011;45298;54.918;73.504;2023-05-10T10:05:49;25.17;;;18.98;;
59486;SDS011;45298;54.918;73.504;2023-05-10T10:08:19;17.70;;;11.60;;
59486;SDS011;45298;54.918;73.504;2023-05-10T10:10:50;17.23;;;10.07;;
59486;SDS011;45298;54.918;73.504;2023-05-10T10:13:19;14.93;;;7.88;;
59486;SDS011;45298;54.918;73.504;2023-05-10T10:15:48;13.65;;;8.50;;
59486;SDS011;45298;54.918;73.504;2023-05-10T10:18:18;24.20;;;17.48;;
59486;SDS011;45298;54.918;73.504;2023-05-10T10:20:51;10.82;;;7.07;;
59486;SDS011;45298;54.918;73.504;2023-05-10T10:23:22;27.70;;;15.93;;
59486;SDS011;45298;54.918;73.504;2023-05-10T10:25:52;14.77;;;7.60;;
59486;SDS011;45298;54.918;73.504;2023-05-10T10:34:21;43.53;;;22.60;;
59486;SDS011;45298;54.918;73.504;2023-05-10T10:36:57;16.85;;;6.97;;
59486;SDS011;45298;54.918;73.504;2023-05-10T10:39:32;12.43;;;7.82;;
59486;SDS011;45298;54.918;73.504;2023-05-10T10:42:01;17.35;;;6.57;;
59486;SDS011;45298;54.918;73.504;2023-05-10T10:47:02;11.60;;;7.70;;
59486;SDS011;45298;54.918;73.504;2023-05-10T10:49:51;13.02;;;7.50;;
59486;SDS011;45298;54.918;73.504;2023-05-10T10:55:11;15.07;;;7.13;;
59486;SDS011;45298;54.918;73.504;2023-05-10T10:57:46;14.05;;;8.50;;
59486;SDS011;45298;54.918;73.504;2023-05-10T11:03:03;18.10;;;9.50;;
59486;SDS011;45298;54.918;73.504;2023-05-10T11:05:38;12.57;;;7.13;;
59486;SDS011;45298;54.918;73.504;2023-05-10T11:08:09;12.00;;;6.88;;
59486;SDS011;45298;54.918;73.504;2023-05-10T11:10:39;14.50;;;6.65;;
59486;SDS011;45298;54.918;73.504;2023-05-10T11:13:17;14.32;;;6.35;;
59486;SDS011;45298;54.918;73.504;2023-05-10T11:19:04;11.00;;;6.05;;
59486;SDS011;45298;54.918;73.504;2023-05-10T11:21:49;15.48;;;7.00;;
59486;SDS011;45298;54.918;73.504;2023-05-10T11:24:22;10.93;;;6.05;;
59486;SDS011;45298;54.918;73.504;2023-05-10T11:26:56;10.40;;;5.88;;
59486;SDS011;45298;54.918;73.504;2023-05-10T11:29:25;10.55;;;6.25;;
59486;SDS011;45298;54.918;73.504;2023-05-10T11:31:56;14.77;;;8.57;;
59486;SDS011;45298;54.918;73.504;2023-05-10T11:36:58;8.35;;;5.50;;
59486;SDS011;45298;54.918;73.504;2023-05-10T11:39:30;27.77;;;8.15;;
59486;SDS011;45298;54.918;73.504;2023-05-10T11:42:01;9.80;;;5.78;;
59486;SDS011;45298;54.918;73.504;2023-05-10T11:44:31;13.48;;;7.25;;
59486;SDS011;45298;54.918;73.504;2023-05-10T11:47:01;10.63;;;5.88;;
59486;SDS011;45298;54.918;73.504;2023-05-10T11:49:31;13.13;;;6.38;;
59486;SDS011;45298;54.918;73.504;2023-05-10T11:52:06;10.98;;;6.05;;
59486;SDS011;45298;54.918;73.504;2023-05-10T11:54:37;8.73;;;5.25;;
59486;SDS011;45298;54.918;73.504;2023-05-10T11:57:06;12.25;;;6.30;;
59486;SDS011;45298;54.918;73.504;2023-05-10T11:59:37;8.60;;;5.05;;
59486;SDS011;45298;54.918;73.504;2023-05-10T12:02:09;8.75;;;5.68;;
59486;SDS011;45298;54.918;73.504;2023-05-10T12:04:39;9.30;;;5.93;;
59486;SDS011;45298;54.918;73.504;2023-05-10T12:07:09;16.88;;;5.70;;
59486;SDS011;45298;54.918;73.504;2023-05-10T12:09:42;10.13;;;5.47;;
59486;SDS011;45298;54.918;73.504;2023-05-10T12:14:48;8.45;;;4.82;;
59486;SDS011;45298;54.918;73.504;2023-05-10T12:17:19;15.93;;;5.35;;
59486;SDS011;45298;54.918;73.504;2023-05-10T12:19:47;10.75;;;6.03;;
59486;SDS011;45298;54.918;73.504;2023-05-10T12:22:20;9.13;;;5.00;;
59486;SDS011;45298;54.918;73.504;2023-05-10T12:24:50;19.50;;;5.97;;
59486;SDS011;45298;54.918;73.504;2023-05-10T12:27:19;10.27;;;4.80;;
59486;SDS011;45298;54.918;73.504;2023-05-10T12:29:49;22.73;;;11.55;;
59486;SDS011;45298;54.918;73.504;2023-05-10T12:32:19;8.30;;;5.07;;
59486;SDS011;45298;54.918;73.504;2023-05-10T12:34:53;9.68;;;4.70;;
59486;SDS011;45298;54.918;73.504;2023-05-10T12:37:27;12.52;;;7.32;;
59486;SDS011;45298;54.918;73.504;2023-05-10T12:39:56;12.13;;;6.55;;
59486;SDS011;45298;54.918;73.504;2023-05-10T12:42:26;28.13;;;15.07;;
59486;SDS011;45298;54.918;73.504;2023-05-10T12:44:55;8.75;;;5.10;;
59486;SDS011;45298;54.918;73.504;2023-05-10T12:47:25;13.55;;;8.25;;
59486;SDS011;45298;54.918;73.504;2023-05-10T12:49:54;234.13;;;57.85;;
59486;SDS011;45298;54.918;73.504;2023-05-10T12:52:27;25.73;;;10.55;;
59486;SDS011;45298;54.918;73.504;2023-05-10T12:54:57;20.52;;;5.55;;
59486;SDS011;45298;54.918;73.504;2023-05-10T12:57:28;33.00;;;6.10;;
59486;SDS011;45298;54.918;73.504;2023-05-10T12:59:58;19.10;;;8.18;;
59486;SDS011;45298;54.918;73.504;2023-05-10T13:02:28;23.95;;;10.50;;
59486;SDS011;45298;54.918;73.504;2023-05-10T13:04:58;31.27;;;15.00;;
59486;SDS011;45298;54.918;73.504;2023-05-10T13:07:28;11.70;;;6.05;;
59486;SDS011;45298;54.918;73.504;2023-05-10T13:10:00;22.13;;;10.13;;
59486;SDS011;45298;54.918;73.504;2023-05-10T13:12:29;24.88;;;14.88;;
59486;SDS011;45298;54.918;73.504;2023-05-10T13:14:58;37.83;;;14.95;;
59486;SDS011;45298;54.918;73.504;2023-05-10T13:17:27;16.10;;;10.02;;
59486;SDS011;45298;54.918;73.504;2023-05-10T13:19:59;18.52;;;10.18;;
59486;SDS011;45298;54.918;73.504;2023-05-10T13:22:28;206.27;;;23.50;;
59486;SDS011;45298;54.918;73.504;2023-05-10T13:25:07;36.65;;;13.88;;
59486;SDS011;45298;54.918;73.504;2023-05-10T13:27:41;22.00;;;7.40;;
59486;SDS011;45298;54.918;73.504;2023-05-10T13:30:10;17.83;;;9.98;;
59486;SDS011;45298;54.918;73.504;2023-05-10T13:32:40;94.72;;;54.33;;
59486;SDS011;45298;54.918;73.504;2023-05-10T13:35:10;37.25;;;21.48;;
59486;SDS011;45298;54.918;73.504;2023-05-10T13:37:39;12.45;;;6.55;;
59486;SDS011;45298;54.918;73.504;2023-05-10T13:40:08;72.57;;;40.42;;
59486;SDS011;45298;54.918;73.504;2023-05-10T13:42:38;33.25;;;19.75;;
59486;SDS011;45298;54.918;73.504;2023-05-10T13:45:07;66.90;;;33.85;;
59486;SDS011;45298;54.918;73.504;2023-05-10T13:47:37;173.32;;;24.70;;
59486;SDS011;45298;54.918;73.504;2023-05-10T13:50:06;86.35;;;46.58;;
59486;SDS011;45298;54.918;73.504;2023-05-10T13:52:36;48.28;;;8.85;;
59486;SDS011;45298;54.918;73.504;2023-05-10T13:55:07;42.70;;;6.30;;
59486;SDS011;45298;54.918;73.504;2023-05-10T13:57:37;37.45;;;15.25;;
59486;SDS011;45298;54.918;73.504;2023-05-10T14:00:06;19.88;;;9.18;;
59486;SDS011;45298;54.918;73.504;2023-05-10T14:02:39;145.48;;;74.40;;
59486;SDS011;45298;54.918;73.504;2023-05-10T14:05:16;80.05;;;38.53;;
59486;SDS011;45298;54.918;73.504;2023-05-10T14:07:51;102.47;;;33.97;;
59486;SDS011;45298;54.918;73.504;2023-05-10T14:10:20;120.63;;;47.15;;
59486;SDS011;45298;54.918;73.504;2023-05-10T14:12:49;153.27;;;59.20;;
59486;SDS011;45298;54.918;73.504;2023-05-10T14:15:18;209.18;;;36.83;;
59486;SDS011;45298;54.918;73.504;2023-05-10T14:17:48;55.35;;;9.32;;
59486;SDS011;45298;54.918;73.504;2023-05-10T14:20:17;36.67;;;13.50;;
59486;SDS011;45298;54.918;73.504;2023-05-10T14:22:46;49.83;;;14.93;;
59486;SDS011;45298;54.918;73.504;2023-05-10T14:25:15;68.78;;;23.23;;
59486;SDS011;45298;54.918;73.504;2023-05-10T14:27:44;70.72;;;29.05;;
59486;SDS011;45298;54.918;73.504;2023-05-10T14:30:14;106.22;;;41.53;;
59486;SDS011;45298;54.918;73.504;2023-05-10T14:32:43;53.33;;;16.08;;
59486;SDS011;45298;54.918;73.504;2023-05-10T14:35:12;82.70;;;27.67;;
59486;SDS011;45298;54.918;73.504;2023-05-10T14:37:46;130.65;;;40.20;;
59486;SDS011;45298;54.918;73.504;2023-05-10T14:40:15;148.27;;;44.58;;
59486;SDS011;45298;54.918;73.504;2023-05-10T14:42:45;125.30;;;40.60;;
59486;SDS011;45298;54.918;73.504;2023-05-10T14:45:14;165.27;;;52.45;;
59486;SDS011;45298;54.918;73.504;2023-05-10T14:47:43;159.90;;;47.70;;
59486;SDS011;45298;54.918;73.504;2023-05-10T14:50:13;211.10;;;80.82;;
59486;SDS011;45298;54.918;73.504;2023-05-10T14:53:01;248.60;;;104.05;;
59486;SDS011;45298;54.918;73.504;2023-05-10T14:55:31;140.43;;;43.40;;
59486;SDS011;45298;54.918;73.504;2023-05-10T14:58:01;159.98;;;51.53;;
59486;SDS011;45298;54.918;73.504;2023-05-10T15:00:31;155.32;;;54.08;;
59486;SDS011;45298;54.918;73.504;2023-05-10T15:03:01;136.20;;;45.50;;
59486;SDS011;45298;54.918;73.504;2023-05-10T15:05:31;155.27;;;54.40;;
59486;SDS011;45298;54.918;73.504;2023-05-10T15:08:00;158.38;;;49.45;;
59486;SDS011;45298;54.918;73.504;2023-05-10T15:10:29;112.20;;;33.28;;
59486;SDS011;45298;54.918;73.504;2023-05-10T15:13:00;104.10;;;33.42;;
59486;SDS011;45298;54.918;73.504;2023-05-10T15:15:29;71.55;;;23.40;;
59486;SDS011;45298;54.918;73.504;2023-05-10T15:17:59;63.55;;;25.67;;
59486;SDS011;45298;54.918;73.504;2023-05-10T15:20:29;47.67;;;17.55;;
59486;SDS011;45298;54.918;73.504;2023-05-10T15:22:58;71.10;;;18.45;;
59486;SDS011;45298;54.918;73.504;2023-05-10T15:25:27;41.75;;;14.32;;
59486;SDS011;45298;54.918;73.504;2023-05-10T15:27:57;41.58;;;14.73;;
59486;SDS011;45298;54.918;73.504;2023-05-10T15:30:26;50.17;;;13.15;;
59486;SDS011;45298;54.918;73.504;2023-05-10T15:32:55;39.85;;;13.85;;
59486;SDS011;45298;54.918;73.504;2023-05-10T15:35:25;46.65;;;16.38;;
59486;SDS011;45298;54.918;73.504;2023-05-10T15:37:55;44.78;;;16.65;;
59486;SDS011;45298;54.918;73.504;2023-05-10T15:40:25;31.15;;;13.63;;
59486;SDS011;45298;54.918;73.504;2023-05-10T15:42:55;24.08;;;9.80;;
59486;SDS011;45298;54.918;73.504;2023-05-10T15:45:24;10.75;;;6.25;;
59486;SDS011;45298;54.918;73.504;2023-05-10T15:47:53;28.25;;;9.88;;
59486;SDS011;45298;54.918;73.504;2023-05-10T15:50:23;27.30;;;11.38;;
59486;SDS011;45298;54.918;73.504;2023-05-10T15:52:52;19.77;;;7.10;;
59486;SDS011;45298;54.918;73.504;2023-05-10T15:55:22;21.83;;;8.25;;
59486;SDS011;45298;54.918;73.504;2023-05-10T15:57:51;24.67;;;6.97;;
59486;SDS011;45298;54.918;73.504;2023-05-10T16:00:21;15.88;;;6.50;;
59486;SDS011;45298;54.918;73.504;2023-05-10T16:02:51;17.40;;;8.90;;
59486;SDS011;45298;54.918;73.504;2023-05-10T16:05:21;15.45;;;7.53;;
59486;SDS011;45298;54.918;73.504;2023-05-10T16:07:51;22.48;;;8.02;;
59486;SDS011;45298;54.918;73.504;2023-05-10T16:10:20;20.05;;;9.82;;
59486;SDS011;45298;54.918;73.504;2023-05-10T16:12:50;28.80;;;14.82;;
59486;SDS011;45298;54.918;73.504;2023-05-10T16:15:21;25.13;;;10.80;;